Hauptseite
METAR-TAF:

METAR-TAF

Flughäfen :

Treviso, Italien

Flughafen Treviso

Breite: 45-39N, Länge: 012-11E, Höhe: 18 m

Beobachtung

Neuester Wetterbericht von vor 23 Minuten, um 22:50 UTC
Wind 3 kt aus Nordost
Temperatur 16°C
Luftfeuchtigkeit 77%
Luftdruck 1019 hPa
Sichtweite 10 km oder mehr

METAR: LIPH 212250Z AUTO 04003KT 9999 NCD 16/12 Q1019

Zeit: 01:13 (23:13 UTC)

Prognose

Neuester Wetterbericht von vor 6 Stunden und 13 Minuten, um 17:00 UTC
Gültige Prognose vom 21 um 18 UTC bis 22 um 18 UTC
Wind 5 kt aus unterschiedlichen Richtungen
Sichtweite 10 km oder mehr
keine Wolken unter 1500 m und keine Kumulonimbus oder Gewitterwolken
Übergehend zu
vom 22 um 09 UTC bis 22 um 12 UTC
Wind 10 kt aus Südost
Übergehend zu
vom 22 um 15 UTC bis 22 um 18 UTC
Wind 5 kt aus unterschiedlichen Richtungen

TAF: LIPH 211700Z 2118/2218 VRB05KT CAVOK BECMG 2209/2212 14010KT BECMG 2215/2218 VRB05KT

Wetterbeobachtungen und Prognosen von mehr als 4000 Flughäfen (METAR und TAF Bericht).

Die verfügbaren Stationen werden durch gelbe und rote Markierungen auf der Karte dargestellt.

Führen Sie die Maus auf sie, um den Namen der Station zu sehen.

Darauf klicken, um die Beobachtung von Wetterbeobachtungen und Prognosen zu sehen.

Um die Karte zu ändern : klicken Sie auf den grünen Tasten mit einem schwarzen Kreuz Zum Vergrößern, auf den grünen Button mit einem Gedankenstrich zu verkleinern, oder auf die grünen Pfeile für benachbarte Karten.


METAR-TAF: